Time;durP1;ratioP1;P1;durP2;ratioP2;P2;SDS_P1;SDS_P2;PMS_P1;PMS_P2;Temp;Humidity;BMP_temperature;BMP_pressure;BME280_temperature;BME280_humidity;BME280_pressure;Samples;Min_cycle;Max_cycle;Signal;HPM_P1;HPM_P2
2021/07/12 00:00:55;;;;;;;3.00;1.85;;;;;;;;;;5007369;28;20038;-75
2021/07/12 00:03:20;;;;;;;2.28;2.08;;;;;;;;;;5023613;28;20045;-75
2021/07/12 00:05:46;;;;;;;5.00;1.70;;;;;;;;;;4992419;28;20581;-74
2021/07/12 00:08:11;;;;;;;1.90;1.80;;;;;;;;;;5006824;28;20041;-75
2021/07/12 00:10:37;;;;;;;2.97;2.67;;;;;;;;;;4992251;28;20510;-74
2021/07/12 00:13:03;;;;;;;2.75;2.00;;;;;;;;;;4990503;28;20041;-74
2021/07/12 00:15:29;;;;;;;2.30;2.10;;;;;;;;;;4992225;28;20052;-75
2021/07/12 00:17:55;;;;;;;3.05;2.40;;;;;;;;;;4992108;28;20080;-75
2021/07/12 00:20:22;;;;;;;2.67;2.30;;;;;;;;;;5023127;28;20414;-74
2021/07/12 00:22:49;;;;;;;5.30;2.15;;;;;;;;;;4992173;28;20030;-75
2021/07/12 00:25:15;;;;;;;3.20;2.10;;;;;;;;;;5006581;28;20034;-74
2021/07/12 00:27:42;;;;;;;2.88;2.08;;;;;;;;;;4991938;28;20034;-74
2021/07/12 00:30:10;;;;;;;3.17;2.40;;;;;;;;;;4990438;28;20034;-73
2021/07/12 00:32:36;;;;;;;2.63;2.42;;;;;;;;;;4992298;28;20069;-73
2021/07/12 00:35:05;;;;;;;4.65;2.00;;;;;;;;;;4992083;28;20034;-73
2021/07/12 00:37:31;;;;;;;3.97;3.15;;;;;;;;;;5023343;28;20114;-73
2021/07/12 00:39:57;;;;;;;3.92;2.40;;;;;;;;;;4991785;28;20036;-73
2021/07/12 00:42:22;;;;;;;4.03;2.17;;;;;;;;;;4991518;28;20030;-73
2021/07/12 00:44:48;;;;;;;5.18;2.45;;;;;;;;;;5023028;28;20026;-73
2021/07/12 00:47:15;;;;;;;2.33;2.13;;;;;;;;;;4990054;28;20031;-74
2021/07/12 00:49:41;;;;;;;4.15;2.40;;;;;;;;;;4991566;28;20026;-73
2021/07/12 00:52:07;;;;;;;2.47;2.03;;;;;;;;;;4990021;28;20076;-73
2021/07/12 00:54:33;;;;;;;5.43;2.70;;;;;;;;;;4991372;28;20038;-72
2021/07/12 00:57:01;;;;;;;7.95;2.55;;;;;;;;;;4991448;28;20433;-71
2021/07/12 00:59:26;;;;;;;3.03;2.65;;;;;;;;;;5022491;28;20057;-73
2021/07/12 01:01:52;;;;;;;5.78;2.30;;;;;;;;;;4990269;28;20057;-73
2021/07/12 01:04:19;;;;;;;3.47;2.45;;;;;;;;;;4991099;28;20433;-73
2021/07/12 01:06:44;;;;;;;4.57;2.30;;;;;;;;;;4991253;28;20041;-72
2021/07/12 01:09:10;;;;;;;4.85;2.97;;;;;;;;;;4990719;28;20113;-74
2021/07/12 01:11:43;;;;;;;2.58;2.38;;;;;;;;;;5006071;28;20068;-73
2021/07/12 01:14:36;;;;;;;4.40;2.60;;;;;;;;;;4990795;28;20038;-73
2021/07/12 01:17:19;;;;;;;5.60;2.70;;;;;;;;;;5018794;28;20042;-74
2021/07/12 01:20:23;;;;;;;6.40;3.10;;;;;;;;;;4991118;28;20135;-74
2021/07/12 01:23:07;;;;;;;7.65;3.95;;;;;;;;;;4990814;28;20058;-74
2021/07/12 01:26:11;;;;;;;3.45;3.00;;;;;;;;;;5022094;28;20554;-75
2021/07/12 01:29:16;;;;;;;3.17;2.85;;;;;;;;;;4971604;28;20080;-75
2021/07/12 01:32:00;;;;;;;3.40;3.10;;;;;;;;;;4987804;28;20037;-75
2021/07/12 01:34:57;;;;;;;5.72;3.03;;;;;;;;;;4990034;28;20261;-73
2021/07/12 01:37:29;;;;;;;7.13;3.20;;;;;;;;;;4984719;28;20045;-75
2021/07/12 01:40:04;;;;;;;4.55;3.35;;;;;;;;;;5022071;28;20080;-75
2021/07/12 01:42:35;;;;;;;3.83;3.42;;;;;;;;;;5021828;28;20190;-75
2021/07/12 01:45:15;;;;;;;5.28;3.85;;;;;;;;;;5021818;28;20026;-75
2021/07/12 01:47:50;;;;;;;3.72;3.42;;;;;;;;;;4990660;28;20041;-75
2021/07/12 01:50:41;;;;;;;5.55;3.70;;;;;;;;;;4990136;28;20026;-75
2021/07/12 01:53:34;;;;;;;4.30;3.38;;;;;;;;;;4989112;28;20057;-75
2021/07/12 01:56:12;;;;;;;6.43;3.65;;;;;;;;;;5021749;28;20042;-74
2021/07/12 01:58:43;;;;;;;4.85;3.83;;;;;;;;;;4990064;28;20077;-74
2021/07/12 02:01:11;;;;;;;13.15;4.70;;;;;;;;;;4990121;28;20558;-75
2021/07/12 02:03:37;;;;;;;4.93;4.10;;;;;;;;;;4990130;28;20026;-75
2021/07/12 02:06:07;;;;;;;4.78;3.90;;;;;;;;;;4990158;28;20034;-75
2021/07/12 02:08:34;;;;;;;5.90;3.92;;;;;;;;;;4988650;28;20034;-74
2021/07/12 02:11:01;;;;;;;6.97;4.30;;;;;;;;;;4990221;28;20034;-74
2021/07/12 02:13:27;;;;;;;6.63;4.00;;;;;;;;;;4988482;28;20041;-74
2021/07/12 02:15:55;;;;;;;6.38;4.03;;;;;;;;;;5021494;28;20023;-74
2021/07/12 02:18:25;;;;;;;7.57;3.70;;;;;;;;;;4990043;28;20041;-75
2021/07/12 02:20:51;;;;;;;5.90;3.75;;;;;;;;;;4989990;28;20034;-74
2021/07/12 02:23:18;;;;;;;6.38;4.18;;;;;;;;;;4988368;28;20022;-74
2021/07/12 02:25:45;;;;;;;9.32;4.07;;;;;;;;;;5021398;28;20030;-75
2021/07/12 02:28:13;;;;;;;6.85;3.90;;;;;;;;;;5021135;28;20034;-75
2021/07/12 02:30:40;;;;;;;4.13;3.50;;;;;;;;;;4988744;28;20041;-75
2021/07/12 02:33:06;;;;;;;3.70;3.30;;;;;;;;;;5004755;28;20121;-75
2021/07/12 02:35:32;;;;;;;4.13;3.28;;;;;;;;;;4989909;28;20101;-75
2021/07/12 02:37:58;;;;;;;5.68;3.65;;;;;;;;;;4993609;28;20033;-75
2021/07/12 02:40:24;;;;;;;4.82;3.20;;;;;;;;;;4993686;28;20026;-75
2021/07/12 02:42:53;;;;;;;5.85;3.72;;;;;;;;;;4992432;28;20034;-75
2021/07/12 02:45:21;;;;;;;4.45;3.83;;;;;;;;;;4993631;28;20022;-75
2021/07/12 02:47:47;;;;;;;8.63;4.10;;;;;;;;;;5025026;28;20100;-74
2021/07/12 02:50:15;;;;;;;6.85;3.58;;;;;;;;;;4993401;28;20523;-75
2021/07/12 02:52:50;;;;;;;6.03;3.90;;;;;;;;;;4993453;28;20030;-75
2021/07/12 02:55:15;;;;;;;5.15;3.90;;;;;;;;;;4993653;28;20026;-74
2021/07/12 02:57:41;;;;;;;6.65;4.60;;;;;;;;;;4993596;28;20045;-74
2021/07/12 03:00:09;;;;;;;5.30;4.18;;;;;;;;;;4993331;28;20518;-75
2021/07/12 03:02:35;;;;;;;10.63;4.57;;;;;;;;;;5008351;28;20027;-75
2021/07/12 03:05:00;;;;;;;7.15;3.85;;;;;;;;;;4993628;28;20026;-75
2021/07/12 03:07:29;;;;;;;7.18;4.47;;;;;;;;;;5008277;28;20030;-74
2021/07/12 03:10:00;;;;;;;8.82;5.22;;;;;;;;;;4993174;28;20025;-74
2021/07/12 03:12:35;;;;;;;7.63;4.50;;;;;;;;;;4993004;28;20026;-75
2021/07/12 03:15:40;;;;;;;6.35;3.95;;;;;;;;;;4993322;28;20054;-75
2021/07/12 03:18:11;;;;;;;10.18;4.35;;;;;;;;;;4993194;28;20030;-73
2021/07/12 03:20:38;;;;;;;4.95;4.38;;;;;;;;;;5008129;28;20034;-76
2021/07/12 03:23:09;;;;;;;6.00;4.35;;;;;;;;;;4992990;28;20130;-76
2021/07/12 03:25:36;;;;;;;7.55;4.82;;;;;;;;;;4992941;28;20033;-75
2021/07/12 03:28:04;;;;;;;9.73;5.07;;;;;;;;;;4993080;28;20040;-75
2021/07/12 03:30:34;;;;;;;5.68;5.07;;;;;;;;;;4992719;28;20030;-77
2021/07/12 03:33:00;;;;;;;7.68;4.82;;;;;;;;;;4991246;28;20029;-76
2021/07/12 03:35:34;;;;;;;6.88;4.53;;;;;;;;;;4992756;28;20023;-76
2021/07/12 03:38:00;;;;;;;5.90;5.30;;;;;;;;;;4993496;28;20030;-77
2021/07/12 03:40:26;;;;;;;6.43;5.03;;;;;;;;;;4993108;28;20037;-74
2021/07/12 03:42:51;;;;;;;7.75;6.30;;;;;;;;;;5007804;28;20045;-75
2021/07/12 03:45:17;;;;;;;6.78;5.00;;;;;;;;;;4992778;28;20479;-76
2021/07/12 03:47:45;;;;;;;10.00;5.57;;;;;;;;;;4991026;28;20022;-75
2021/07/12 03:50:13;;;;;;;9.88;5.70;;;;;;;;;;4992488;28;20029;-75
2021/07/12 03:52:43;;;;;;;8.55;5.20;;;;;;;;;;5023673;28;20026;-77
2021/07/12 03:55:10;;;;;;;6.43;5.22;;;;;;;;;;4992741;28;20581;-76
2021/07/12 03:57:36;;;;;;;9.85;6.57;;;;;;;;;;4992228;28;20239;-75
2021/07/12 04:00:03;;;;;;;9.32;5.35;;;;;;;;;;4990837;28;20104;-75
2021/07/12 04:02:29;;;;;;;7.55;5.47;;;;;;;;;;4991911;28;20383;-74
2021/07/12 04:04:54;;;;;;;8.95;6.05;;;;;;;;;;4992223;28;20034;-75
2021/07/12 04:07:20;;;;;;;8.55;7.03;;;;;;;;;;5023480;28;20026;-74
2021/07/12 04:09:45;;;;;;;13.90;6.70;;;;;;;;;;4992183;28;20066;-75
2021/07/12 04:12:11;;;;;;;7.10;5.40;;;;;;;;;;5023795;28;20030;-75
2021/07/12 04:14:37;;;;;;;13.38;6.07;;;;;;;;;;4991873;28;20027;-76
2021/07/12 04:17:03;;;;;;;7.38;6.45;;;;;;;;;;4992348;28;20022;-76
2021/07/12 04:19:28;;;;;;;9.82;6.28;;;;;;;;;;5006797;28;20159;-76
2021/07/12 04:21:54;;;;;;;7.55;5.43;;;;;;;;;;4990632;28;20065;-76
2021/07/12 04:24:19;;;;;;;10.90;6.82;;;;;;;;;;4990027;28;20030;-74
2021/07/12 04:26:45;;;;;;;8.85;6.43;;;;;;;;;;5023617;28;20026;-74
2021/07/12 04:29:10;;;;;;;9.70;7.28;;;;;;;;;;4991715;28;20026;-74
2021/07/12 04:31:36;;;;;;;12.35;7.05;;;;;;;;;;4991495;28;20104;-75
2021/07/12 04:34:01;;;;;;;9.93;5.88;;;;;;;;;;4991798;28;20038;-76
2021/07/12 04:36:27;;;;;;;13.52;6.20;;;;;;;;;;4991713;28;20026;-76
2021/07/12 04:38:52;;;;;;;10.98;5.47;;;;;;;;;;5006486;28;20121;-75
2021/07/12 04:41:18;;;;;;;7.65;5.43;;;;;;;;;;4991516;28;20601;-74
2021/07/12 04:43:43;;;;;;;9.95;5.57;;;;;;;;;;4991908;28;20046;-77
2021/07/12 04:46:09;;;;;;;7.63;5.68;;;;;;;;;;5022887;28;20418;-76
2021/07/12 04:48:34;;;;;;;6.45;5.85;;;;;;;;;;5005914;28;20044;-75
2021/07/12 04:51:00;;;;;;;10.43;6.25;;;;;;;;;;4991308;28;20030;-76
2021/07/12 04:53:25;;;;;;;8.57;5.70;;;;;;;;;;4991051;28;20057;-76
2021/07/12 04:55:51;;;;;;;16.48;5.93;;;;;;;;;;4991353;28;20387;-76
2021/07/12 04:58:16;;;;;;;7.10;5.82;;;;;;;;;;4991521;28;20030;-76
2021/07/12 05:00:41;;;;;;;19.58;5.57;;;;;;;;;;4990886;28;20050;-76
2021/07/12 05:03:07;;;;;;;12.68;5.03;;;;;;;;;;5023045;28;20036;-76
2021/07/12 05:05:33;;;;;;;21.17;5.80;;;;;;;;;;4989461;28;20081;-76
2021/07/12 05:07:59;;;;;;;7.25;5.18;;;;;;;;;;4991012;28;20062;-76
2021/07/12 05:10:24;;;;;;;15.43;4.95;;;;;;;;;;4990785;28;20033;-76
2021/07/12 05:12:50;;;;;;;6.68;4.78;;;;;;;;;;4990903;28;20030;-75
2021/07/12 05:15:15;;;;;;;11.05;4.43;;;;;;;;;;4990974;28;20023;-75
2021/07/12 05:17:41;;;;;;;10.48;5.47;;;;;;;;;;4989382;28;20644;-76
2021/07/12 05:20:08;;;;;;;22.80;5.50;;;;;;;;;;4990866;28;20026;-76
2021/07/12 05:22:34;;;;;;;8.65;4.80;;;;;;;;;;4990452;28;20370;-77
2021/07/12 05:25:00;;;;;;;11.73;6.10;;;;;;;;;;4990547;28;20042;-76
2021/07/12 05:27:25;;;;;;;5.70;4.53;;;;;;;;;;4990500;28;20033;-77
2021/07/12 05:29:51;;;;;;;8.85;5.22;;;;;;;;;;4990525;28;20026;-76
2021/07/12 05:32:16;;;;;;;9.50;4.72;;;;;;;;;;4991033;28;20057;-76
2021/07/12 05:34:42;;;;;;;6.28;4.97;;;;;;;;;;5005186;28;20031;-76
2021/07/12 05:37:07;;;;;;;7.45;4.82;;;;;;;;;;4990487;28;20033;-75
2021/07/12 05:39:33;;;;;;;7.28;4.95;;;;;;;;;;4988767;28;20026;-76
2021/07/12 05:41:58;;;;;;;6.57;4.68;;;;;;;;;;4989132;28;20027;-75
2021/07/12 05:44:24;;;;;;;6.45;3.90;;;;;;;;;;4990050;28;20026;-77
2021/07/12 05:46:49;;;;;;;6.30;5.00;;;;;;;;;;4990658;28;20475;-75
2021/07/12 05:49:15;;;;;;;8.55;4.95;;;;;;;;;;4989004;28;20382;-75
2021/07/12 05:51:40;;;;;;;9.65;4.53;;;;;;;;;;4990082;28;20033;-76
2021/07/12 05:54:06;;;;;;;6.82;4.22;;;;;;;;;;5005020;28;20034;-75
2021/07/12 05:56:31;;;;;;;7.28;3.97;;;;;;;;;;5021525;28;20107;-75
2021/07/12 05:58:57;;;;;;;7.45;3.90;;;;;;;;;;5005203;28;20143;-75
2021/07/12 06:01:22;;;;;;;6.13;5.22;;;;;;;;;;4988686;28;20026;-76
2021/07/12 06:03:48;;;;;;;4.40;4.10;;;;;;;;;;4990147;28;20040;-76
2021/07/12 06:06:14;;;;;;;4.72;4.22;;;;;;;;;;5005189;28;20026;-75
2021/07/12 06:08:39;;;;;;;5.82;3.80;;;;;;;;;;5004768;28;20033;-75
2021/07/12 06:11:07;;;;;;;8.48;4.57;;;;;;;;;;5000470;28;20042;-76
2021/07/12 06:13:32;;;;;;;9.80;4.93;;;;;;;;;;5015493;28;20109;-76
2021/07/12 06:15:58;;;;;;;11.85;5.03;;;;;;;;;;4989166;28;20101;-76
2021/07/12 06:18:23;;;;;;;8.40;4.07;;;;;;;;;;4998177;28;20029;-76
2021/07/12 06:20:49;;;;;;;5.47;4.22;;;;;;;;;;5005922;28;20030;-76
2021/07/12 06:23:14;;;;;;;7.20;4.68;;;;;;;;;;4989093;28;20072;-77
2021/07/12 06:25:40;;;;;;;5.75;3.60;;;;;;;;;;4988829;28;20037;-76
2021/07/12 06:28:05;;;;;;;5.50;4.32;;;;;;;;;;4991912;28;20531;-75
2021/07/12 06:30:31;;;;;;;4.47;3.70;;;;;;;;;;5002968;28;20080;-76
2021/07/12 06:32:56;;;;;;;5.90;3.97;;;;;;;;;;5007279;28;20328;-75
2021/07/12 06:35:22;;;;;;;5.18;4.50;;;;;;;;;;5000550;28;20113;-76
2021/07/12 06:37:48;;;;;;;9.05;4.22;;;;;;;;;;5004122;28;20035;-76
2021/07/12 06:40:14;;;;;;;4.63;3.53;;;;;;;;;;5003915;28;20030;-76
2021/07/12 06:42:40;;;;;;;7.47;4.13;;;;;;;;;;4987824;28;20022;-76
2021/07/12 06:45:06;;;;;;;5.43;4.05;;;;;;;;;;4989652;28;20360;-76
2021/07/12 06:47:32;;;;;;;6.82;4.45;;;;;;;;;;4989195;28;20034;-75
2021/07/12 06:49:57;;;;;;;9.70;3.90;;;;;;;;;;4987615;28;20394;-76
2021/07/12 06:52:22;;;;;;;8.57;4.53;;;;;;;;;;4986828;28;20128;-76
2021/07/12 06:54:48;;;;;;;7.82;4.43;;;;;;;;;;4987668;28;20033;-77
2021/07/12 06:57:15;;;;;;;7.15;3.85;;;;;;;;;;5003182;28;20030;-76
2021/07/12 06:59:41;;;;;;;6.88;4.47;;;;;;;;;;4987524;28;20046;-76
2021/07/12 07:02:07;;;;;;;62.17;10.65;;;;;;;;;;4976927;28;20393;-75
2021/07/12 07:04:33;;;;;;;5.97;4.72;;;;;;;;;;4964999;28;20065;-76
2021/07/12 07:06:59;;;;;;;7.47;4.47;;;;;;;;;;4979638;28;20031;-75
2021/07/12 07:09:27;;;;;;;10.38;5.25;;;;;;;;;;4983961;28;20052;-73
2021/07/12 07:11:53;;;;;;;10.18;4.55;;;;;;;;;;4986895;28;20041;-74
2021/07/12 07:14:20;;;;;;;10.98;5.00;;;;;;;;;;4964764;28;20038;-75
2021/07/12 07:16:46;;;;;;;6.75;4.80;;;;;;;;;;4978941;28;20124;-75
2021/07/12 07:19:13;;;;;;;15.60;5.50;;;;;;;;;;5000927;28;20117;-77
2021/07/12 07:21:39;;;;;;;11.77;6.35;;;;;;;;;;5005856;28;20037;-75
2021/07/12 07:24:05;;;;;;;9.45;5.30;;;;;;;;;;4976028;28;20106;-74
2021/07/12 07:26:31;;;;;;;11.90;5.15;;;;;;;;;;4972236;28;20785;-73
2021/07/12 07:28:57;;;;;;;8.00;5.40;;;;;;;;;;5021163;28;20026;-74
2021/07/12 07:31:24;;;;;;;9.85;5.95;;;;;;;;;;5005125;28;20711;-75
2021/07/12 07:33:50;;;;;;;8.85;6.20;;;;;;;;;;4995568;28;20093;-73
2021/07/12 07:36:20;;;;;;;13.48;6.85;;;;;;;;;;4986954;28;20033;-75
2021/07/12 07:38:46;;;;;;;9.90;6.72;;;;;;;;;;4990725;28;20140;-75
2021/07/12 07:41:12;;;;;;;8.82;6.72;;;;;;;;;;4990402;28;20026;-77
2021/07/12 07:43:38;;;;;;;8.40;6.28;;;;;;;;;;4988609;28;20046;-76
2021/07/12 07:46:06;;;;;;;11.70;7.13;;;;;;;;;;4992485;28;20092;-74
2021/07/12 07:48:32;;;;;;;13.25;9.63;;;;;;;;;;5004835;28;20072;-78
2021/07/12 07:50:58;;;;;;;7.57;5.75;;;;;;;;;;4986744;28;20045;-75
2021/07/12 07:53:25;;;;;;;16.77;7.05;;;;;;;;;;4990501;28;20062;-74
2021/07/12 07:55:52;;;;;;;15.52;6.40;;;;;;;;;;5004016;28;20125;-75
2021/07/12 07:58:18;;;;;;;10.63;6.53;;;;;;;;;;4985610;28;20038;-75
2021/07/12 08:00:44;;;;;;;10.90;6.90;;;;;;;;;;4991003;28;20042;-74
2021/07/12 08:03:10;;;;;;;7.80;5.78;;;;;;;;;;4983699;28;20469;-75
2021/07/12 08:05:36;;;;;;;10.35;5.28;;;;;;;;;;5020821;28;20125;-75
2021/07/12 08:08:03;;;;;;;10.63;6.55;;;;;;;;;;5017109;28;20085;-75
2021/07/12 08:10:30;;;;;;;12.30;6.20;;;;;;;;;;4986272;28;20038;-76
2021/07/12 08:12:56;;;;;;;10.00;6.20;;;;;;;;;;4988188;28;20018;-74
2021/07/12 08:15:24;;;;;;;8.27;7.00;;;;;;;;;;4986060;28;20114;-75
2021/07/12 08:17:52;;;;;;;6.60;5.97;;;;;;;;;;4990538;28;20030;-76
2021/07/12 08:20:19;;;;;;;9.27;5.88;;;;;;;;;;4989817;28;20030;-76
2021/07/12 08:22:51;;;;;;;6.47;5.22;;;;;;;;;;5005362;28;20026;-76
2021/07/12 08:25:17;;;;;;;8.85;6.25;;;;;;;;;;4980707;28;20027;-75
2021/07/12 08:27:43;;;;;;;8.38;5.50;;;;;;;;;;4986072;28;20037;-75
2021/07/12 08:30:11;;;;;;;11.27;5.65;;;;;;;;;;4988878;28;20542;-75
2021/07/12 08:32:37;;;;;;;10.88;5.93;;;;;;;;;;4986295;28;20034;-75
2021/07/12 08:35:05;;;;;;;100.18;11.68;;;;;;;;;;4984702;28;20030;-75
2021/07/12 08:37:32;;;;;;;8.02;5.97;;;;;;;;;;4983021;28;20130;-75
2021/07/12 08:39:58;;;;;;;12.75;5.32;;;;;;;;;;4979601;28;20034;-75
2021/07/12 08:42:26;;;;;;;9.20;5.32;;;;;;;;;;4982813;28;20026;-75
2021/07/12 08:44:53;;;;;;;10.40;5.47;;;;;;;;;;4984790;28;20038;-75
2021/07/12 08:47:19;;;;;;;5.85;4.85;;;;;;;;;;4985379;28;20034;-76
2021/07/12 08:49:45;;;;;;;10.88;5.35;;;;;;;;;;4992366;28;20387;-76
2021/07/12 08:52:11;;;;;;;6.97;5.35;;;;;;;;;;4984389;28;20602;-76
2021/07/12 08:54:39;;;;;;;10.27;5.75;;;;;;;;;;4979369;28;20047;-74
2021/07/12 08:57:07;;;;;;;7.28;4.35;;;;;;;;;;4984857;28;20046;-75
2021/07/12 08:59:39;;;;;;;6.25;4.53;;;;;;;;;;4985828;28;20387;-75
2021/07/12 09:02:20;;;;;;;5.22;4.43;;;;;;;;;;4984248;28;20026;-75
2021/07/12 09:04:48;;;;;;;94.80;10.75;;;;;;;;;;4986378;28;20070;-76
2021/07/12 09:07:22;;;;;;;7.32;4.45;;;;;;;;;;4991051;28;20084;-76
2021/07/12 09:10:11;;;;;;;4.68;4.20;;;;;;;;;;5003798;28;20027;-76
2021/07/12 09:12:49;;;;;;;6.53;5.90;;;;;;;;;;4990595;28;20471;-75
2021/07/12 09:15:16;;;;;;;7.75;4.85;;;;;;;;;;4992657;28;20034;-75
2021/07/12 09:17:54;;;;;;;10.60;5.25;;;;;;;;;;5024830;28;20029;-75
2021/07/12 09:20:33;;;;;;;6.68;5.13;;;;;;;;;;4997558;28;20085;-75
2021/07/12 09:23:21;;;;;;;9.10;4.90;;;;;;;;;;5029775;28;20018;-74
2021/07/12 09:26:04;;;;;;;5.93;4.45;;;;;;;;;;4989929;28;20029;-74
2021/07/12 09:28:40;;;;;;;6.05;4.50;;;;;;;;;;5018849;28;20034;-76
2021/07/12 09:31:29;;;;;;;6.35;4.60;;;;;;;;;;4989040;28;20026;-76
2021/07/12 09:33:55;;;;;;;5.10;4.53;;;;;;;;;;4988231;28;20022;-74
2021/07/12 09:36:22;;;;;;;7.07;5.55;;;;;;;;;;4994742;28;20038;-75
2021/07/12 09:38:48;;;;;;;6.88;6.18;;;;;;;;;;4985459;28;20024;-76
2021/07/12 09:41:32;;;;;;;8.52;4.32;;;;;;;;;;5016991;28;20042;-75
2021/07/12 09:44:02;;;;;;;7.80;4.95;;;;;;;;;;5003136;28;20466;-76
2021/07/12 09:46:30;;;;;;;5.50;4.07;;;;;;;;;;4974912;28;20034;-76
2021/07/12 09:49:12;;;;;;;5.07;4.43;;;;;;;;;;4988673;28;20032;-75
2021/07/12 09:51:38;;;;;;;5.13;3.92;;;;;;;;;;4984996;28;20034;-74
2021/07/12 09:54:24;;;;;;;4.60;4.20;;;;;;;;;;5015425;28;20026;-76
2021/07/12 09:56:53;;;;;;;6.88;4.22;;;;;;;;;;4982276;28;20065;-76
2021/07/12 09:59:20;;;;;;;4.70;4.30;;;;;;;;;;4986218;28;20081;-75
2021/07/12 10:01:56;;;;;;;6.65;4.40;;;;;;;;;;4993490;28;20072;-75
2021/07/12 10:04:25;;;;;;;7.85;4.65;;;;;;;;;;5020898;28;20027;-75
2021/07/12 10:06:56;;;;;;;3.85;3.53;;;;;;;;;;4982803;28;20038;-74
2021/07/12 10:09:23;;;;;;;4.63;3.30;;;;;;;;;;5001678;28;20497;-74
2021/07/12 10:11:51;;;;;;;6.68;3.50;;;;;;;;;;4987341;28;20050;-75
2021/07/12 10:14:18;;;;;;;4.63;3.80;;;;;;;;;;4994813;28;20025;-78
2021/07/12 10:16:48;;;;;;;5.15;3.20;;;;;;;;;;4996394;28;20053;-74
2021/07/12 10:19:14;;;;;;;3.95;3.55;;;;;;;;;;5006647;28;20046;-75
2021/07/12 10:21:51;;;;;;;5.07;4.07;;;;;;;;;;4986800;28;20124;-76
2021/07/12 10:24:26;;;;;;;5.22;3.90;;;;;;;;;;4985991;28;20141;-75
2021/07/12 10:26:55;;;;;;;3.40;3.10;;;;;;;;;;4983873;28;20042;-75
2021/07/12 10:29:31;;;;;;;4.28;3.72;;;;;;;;;;4987013;28;20034;-77
2021/07/12 10:32:04;;;;;;;4.63;3.58;;;;;;;;;;4980593;28;20115;-75
2021/07/12 10:34:48;;;;;;;5.20;3.00;;;;;;;;;;5005190;28;20041;-77
2021/07/12 10:37:33;;;;;;;7.93;5.47;;;;;;;;;;4990546;28;20041;-76
2021/07/12 10:40:18;;;;;;;3.33;3.05;;;;;;;;;;4986444;28;20175;-76
2021/07/12 10:42:44;;;;;;;2.53;2.33;;;;;;;;;;4975186;28;20038;-76
2021/07/12 10:45:25;;;;;;;6.20;2.88;;;;;;;;;;4990191;28;20037;-78
2021/07/12 10:47:54;;;;;;;;;;;;;;;;;;4986162;28;20034;-77
2021/07/12 10:50:38;;;;;;;4.78;2.53;;;;;;;;;;4981851;28;19924;-74
2021/07/12 10:53:26;;;;;;;2.65;2.00;;;;;;;;;;4998057;28;20026;-74
2021/07/12 10:55:58;;;;;;;2.60;2.33;;;;;;;;;;4986806;28;20034;-75
2021/07/12 10:58:26;;;;;;;2.50;2.30;;;;;;;;;;5002249;28;20030;-77
2021/07/12 11:00:53;;;;;;;4.18;2.75;;;;;;;;;;5002140;28;20065;-75
2021/07/12 11:03:42;;;;;;;7.35;3.20;;;;;;;;;;4979606;28;20089;-75
2021/07/12 11:06:12;;;;;;;7.93;3.05;;;;;;;;;;4984058;28;20034;-75
2021/07/12 11:08:42;;;;;;;4.53;2.42;;;;;;;;;;4987615;28;20041;-76
2021/07/12 11:11:08;;;;;;;9.88;3.30;;;;;;;;;;4989917;28;20038;-74
2021/07/12 11:13:52;;;;;;;5.70;3.83;;;;;;;;;;4993329;28;20030;-75
2021/07/12 11:16:23;;;;;;;7.32;4.07;;;;;;;;;;5021167;28;20220;-76
2021/07/12 11:18:50;;;;;;;9.20;3.47;;;;;;;;;;4992533;28;20092;-73
2021/07/12 11:21:28;;;;;;;3.25;2.30;;;;;;;;;;5003480;28;20465;-74
2021/07/12 11:24:18;;;;;;;5.90;2.70;;;;;;;;;;5008377;28;20029;-75
2021/07/12 11:26:47;;;;;;;4.60;2.10;;;;;;;;;;4981182;28;20065;-74
2021/07/12 11:29:27;;;;;;;6.15;2.95;;;;;;;;;;4989134;28;20522;-75
2021/07/12 11:32:03;;;;;;;4.30;2.80;;;;;;;;;;4988740;28;20495;-74
2021/07/12 11:34:44;;;;;;;3.00;2.17;;;;;;;;;;4989002;28;20040;-76
2021/07/12 11:37:20;;;;;;;2.33;2.13;;;;;;;;;;4985254;28;20478;-76
2021/07/12 11:39:58;;;;;;;2.13;1.92;;;;;;;;;;4986819;28;20034;-75
2021/07/12 11:42:28;;;;;;;2.63;1.92;;;;;;;;;;5023276;28;20030;-76
2021/07/12 11:44:55;;;;;;;1.90;1.70;;;;;;;;;;4986179;28;20025;-75
2021/07/12 11:47:27;;;;;;;1.50;1.40;;;;;;;;;;4989429;28;20035;-75
2021/07/12 11:50:00;;;;;;;2.92;1.77;;;;;;;;;;4990286;28;20121;-75
2021/07/12 11:52:27;;;;;;;4.05;2.45;;;;;;;;;;4986424;28;20031;-75
2021/07/12 11:55:15;;;;;;;2.45;2.13;;;;;;;;;;4991740;28;20026;-75
2021/07/12 11:57:43;;;;;;;3.17;1.92;;;;;;;;;;4988600;28;20117;-74
2021/07/12 12:00:13;;;;;;;2.20;2.00;;;;;;;;;;5000787;28;20050;-75
2021/07/12 12:02:40;;;;;;;5.15;1.90;;;;;;;;;;4989103;28;20022;-74
2021/07/12 12:05:11;;;;;;;2.25;1.65;;;;;;;;;;4994331;28;20030;-74
2021/07/12 12:07:47;;;;;;;2.92;1.40;;;;;;;;;;4987995;28;20019;-75
2021/07/12 12:10:20;;;;;;;2.38;1.55;;;;;;;;;;5004981;28;20091;-74
2021/07/12 12:12:53;;;;;;;1.77;1.67;;;;;;;;;;5019305;28;20044;-74
2021/07/12 12:15:26;;;;;;;6.65;1.80;;;;;;;;;;4995523;28;20065;-75
2021/07/12 12:17:57;;;;;;;9.95;2.20;;;;;;;;;;5033656;28;20064;-76
2021/07/12 12:20:25;;;;;;;2.95;2.20;;;;;;;;;;4999990;28;20117;-75
2021/07/12 12:23:09;;;;;;;3.78;1.90;;;;;;;;;;5008924;28;20093;-76
2021/07/12 12:26:07;;;;;;;5.15;3.80;;;;;;;;;;5002911;28;20034;-77
2021/07/12 12:28:36;;;;;;;2.40;2.20;;;;;;;;;;4981715;28;20057;-75
2021/07/12 12:31:20;;;;;;;1.73;1.50;;;;;;;;;;4983080;28;20470;-76
2021/07/12 12:34:11;;;;;;;1.73;1.50;;;;;;;;;;4982700;28;20067;-76
2021/07/12 12:36:39;;;;;;;6.45;1.88;;;;;;;;;;5012549;28;20034;-77
2021/07/12 12:39:09;;;;;;;1.40;1.30;;;;;;;;;;4983709;28;20042;-77
2021/07/12 12:41:49;;;;;;;6.03;2.05;;;;;;;;;;4997273;28;20026;-76
2021/07/12 12:44:18;;;;;;;7.50;1.60;;;;;;;;;;4983116;28;20042;-75
2021/07/12 12:46:57;;;;;;;2.10;1.48;;;;;;;;;;5013797;28;20091;-77
2021/07/12 12:49:28;;;;;;;3.17;1.90;;;;;;;;;;4983300;28;20105;-75
2021/07/12 12:51:59;;;;;;;3.30;1.70;;;;;;;;;;4978737;28;20101;-76
2021/07/12 12:54:50;;;;;;;4.07;2.25;;;;;;;;;;4980664;28;20062;-76
2021/07/12 12:57:25;;;;;;;3.20;1.95;;;;;;;;;;4981025;28;20042;-76
2021/07/12 12:59:51;;;;;;;2.58;1.92;;;;;;;;;;4997057;28;20137;-76
2021/07/12 13:02:20;;;;;;;3.58;2.00;;;;;;;;;;4983621;28;20129;-77
2021/07/12 13:04:47;;;;;;;3.25;2.22;;;;;;;;;;4997500;28;20716;-77
2021/07/12 13:07:19;;;;;;;2.15;1.98;;;;;;;;;;4981342;28;20200;-77
2021/07/12 13:09:46;;;;;;;2.17;1.95;;;;;;;;;;4983668;28;20452;-75
2021/07/12 13:12:17;;;;;;;1.90;1.75;;;;;;;;;;4983364;28;20107;-76
2021/07/12 13:14:51;;;;;;;3.72;2.30;;;;;;;;;;4980654;28;20080;-75
2021/07/12 13:17:22;;;;;;;7.57;2.53;;;;;;;;;;4980037;28;20041;-77
2021/07/12 13:20:06;;;;;;;4.22;2.35;;;;;;;;;;4984161;28;20027;-76
2021/07/12 13:22:35;;;;;;;7.43;2.42;;;;;;;;;;4983286;28;20037;-75
2021/07/12 13:25:12;;;;;;;6.30;2.50;;;;;;;;;;4984227;28;20041;-74
2021/07/12 13:27:42;;;;;;;6.05;3.55;;;;;;;;;;4981087;28;20034;-76
2021/07/12 13:30:10;;;;;;;2.50;2.30;;;;;;;;;;5013805;28;20029;-75
2021/07/12 13:32:37;;;;;;;2.97;2.03;;;;;;;;;;4998735;28;20034;-76
2021/07/12 13:35:09;;;;;;;2.40;2.03;;;;;;;;;;4984370;28;20113;-75
2021/07/12 13:37:35;;;;;;;2.30;2.03;;;;;;;;;;4980716;28;20034;-75
2021/07/12 13:40:04;;;;;;;3.40;1.55;;;;;;;;;;4981929;28;20030;-75
2021/07/12 13:42:30;;;;;;;6.68;1.90;;;;;;;;;;4982183;28;20533;-76
2021/07/12 13:44:56;;;;;;;1.63;1.48;;;;;;;;;;4984294;28;20026;-76
2021/07/12 13:47:23;;;;;;;6.97;1.63;;;;;;;;;;4984559;28;20033;-77
2021/07/12 13:49:49;;;;;;;3.00;1.48;;;;;;;;;;4983655;28;20030;-79
2021/07/12 13:52:15;;;;;;;1.48;1.38;;;;;;;;;;4985144;28;20034;-77
2021/07/12 13:54:41;;;;;;;2.28;1.13;;;;;;;;;;4985994;28;20044;-76
2021/07/12 13:57:07;;;;;;;1.90;1.10;;;;;;;;;;4982084;28;20546;-75
2021/07/12 13:59:39;;;;;;;2.08;1.35;;;;;;;;;;5015541;28;20092;-76
2021/07/12 14:02:16;;;;;;;5.45;1.48;;;;;;;;;;4989396;28;20057;-78
2021/07/12 14:04:43;;;;;;;3.33;1.55;;;;;;;;;;5017292;28;20031;-76
2021/07/12 14:07:17;;;;;;;5.40;1.50;;;;;;;;;;4986923;28;20054;-74
2021/07/12 14:09:43;;;;;;;4.68;1.60;;;;;;;;;;4987171;28;20056;-75
2021/07/12 14:12:11;;;;;;;3.75;1.30;;;;;;;;;;4985946;28;20076;-77
2021/07/12 14:14:37;;;;;;;1.60;1.25;;;;;;;;;;4990886;28;20026;-77
2021/07/12 14:17:03;;;;;;;1.48;1.20;;;;;;;;;;4989396;28;20029;-76
2021/07/12 14:19:28;;;;;;;2.80;1.40;;;;;;;;;;5012758;28;20422;-76
2021/07/12 14:21:54;;;;;;;3.65;0.90;;;;;;;;;;4986380;28;20027;-76
2021/07/12 14:24:20;;;;;;;1.85;1.55;;;;;;;;;;4987008;28;20037;-76
2021/07/12 14:26:45;;;;;;;4.70;1.08;;;;;;;;;;4988301;28;20113;-76
2021/07/12 14:29:11;;;;;;;3.17;1.10;;;;;;;;;;4985904;28;20037;-76
2021/07/12 14:31:39;;;;;;;2.90;1.10;;;;;;;;;;4985338;28;20031;-77
2021/07/12 14:34:06;;;;;;;1.90;1.10;;;;;;;;;;4985994;28;20817;-77
2021/07/12 14:36:32;;;;;;;2.63;1.48;;;;;;;;;;4985163;28;20030;-75
2021/07/12 14:38:58;;;;;;;4.03;1.25;;;;;;;;;;4982378;28;20051;-76
2021/07/12 14:41:24;;;;;;;1.63;1.00;;;;;;;;;;4985130;28;20083;-75
2021/07/12 14:43:50;;;;;;;2.60;1.40;;;;;;;;;;4986980;28;20091;-77
2021/07/12 14:46:16;;;;;;;1.30;1.20;;;;;;;;;;4987854;28;20491;-76
2021/07/12 14:48:43;;;;;;;4.85;1.90;;;;;;;;;;5018493;28;20462;-77
2021/07/12 14:51:10;;;;;;;1.83;1.35;;;;;;;;;;4985965;28;20125;-77
2021/07/12 14:53:35;;;;;;;1.30;1.20;;;;;;;;;;4985959;28;20027;-76
2021/07/12 14:56:01;;;;;;;2.90;1.33;;;;;;;;;;4987299;28;20030;-77